Terminal Aerodrome Forecast
Issued by NWS Tuscon, AZ

Home | Current Version | Previous Version | Text Only | Print | Product List | Glossary On
Versions: 1 2 3 4 5 6 7 8 9 10 11 12 13 14 15 16 17 18 19 20
000
FTUS45 KTWC 160800 AAD
TAFTUS
TAF AMD
KTUS 160813Z 1608/1706 14011KT P6SM BKN100
     FM161100 13012KT P6SM VCSH BKN100
     FM161700 12013KT P6SM -SHRA SCT050 BKN080=

USA.gov is the U.S. government's official web portal to all federal, state and local government web resources and services.